Time;durP1;ratioP1;P1;durP2;ratioP2;P2;SDS_P1;SDS_P2;PMS_P1;PMS_P2;Temp;Humidity;BMP_temperature;BMP_pressure;BME280_temperature;BME280_humidity;BME280_pressure;Samples;Min_cycle;Max_cycle;Signal;HPM_P1;HPM_P2
2024/01/08 00:01:36;;;;;;;9.03;4.60;;;;;;;;;;5036495;28;20091;-64
2024/01/08 00:04:03;;;;;;;9.67;4.80;;;;;;;;;;5031822;28;20358;-64
2024/01/08 00:06:29;;;;;;;11.47;5.43;;;;;;;;;;5050885;28;20290;-64
2024/01/08 00:08:55;;;;;;;11.30;5.00;;;;;;;;;;5049589;28;20299;-64
2024/01/08 00:11:21;;;;;;;12.93;5.30;;;;;;;;;;5050100;28;20611;-64
2024/01/08 00:13:47;;;;;;;11.07;5.10;;;;;;;;;;5050113;28;20048;-64
2024/01/08 00:16:13;;;;;;;10.90;4.40;;;;;;;;;;5047881;28;20275;-64
2024/01/08 00:18:39;;;;;;;11.80;4.47;;;;;;;;;;5030313;28;20284;-64
2024/01/08 00:21:05;;;;;;;13.77;5.37;;;;;;;;;;5029697;28;20276;-64
2024/01/08 00:23:34;;;;;;;10.90;5.17;;;;;;;;;;5030568;28;20061;-64
2024/01/08 00:26:00;;;;;;;9.03;5.27;;;;;;;;;;5030540;28;20292;-64
2024/01/08 00:28:26;;;;;;;8.83;4.63;;;;;;;;;;5030732;28;20311;-64
2024/01/08 00:30:53;;;;;;;7.87;4.47;;;;;;;;;;5030512;28;20739;-64
2024/01/08 00:33:19;;;;;;;11.13;6.70;;;;;;;;;;5030263;28;20327;-64
2024/01/08 00:35:45;;;;;;;10.10;5.27;;;;;;;;;;5028568;28;20713;-64
2024/01/08 00:38:11;;;;;;;10.47;4.07;;;;;;;;;;5030274;28;20346;-64
2024/01/08 00:40:37;;;;;;;9.93;4.93;;;;;;;;;;5030497;28;20280;-64
2024/01/08 00:43:03;;;;;;;10.40;5.30;;;;;;;;;;5029653;28;20396;-64
2024/01/08 00:45:29;;;;;;;9.17;4.70;;;;;;;;;;5030015;28;20617;-64
2024/01/08 00:47:55;;;;;;;10.07;5.10;;;;;;;;;;5030219;28;20722;-64
2024/01/08 00:50:22;;;;;;;14.03;6.10;;;;;;;;;;5030002;28;20326;-64
2024/01/08 00:52:48;;;;;;;9.70;4.70;;;;;;;;;;5029280;28;20057;-64
2024/01/08 00:55:15;;;;;;;14.20;5.60;;;;;;;;;;5033766;28;20880;-64
2024/01/08 00:57:41;;;;;;;12.13;5.77;;;;;;;;;;5049782;28;20411;-64
2024/01/08 01:00:08;;;;;;;9.47;4.93;;;;;;;;;;5050253;28;20282;-64
2024/01/08 01:02:35;;;;;;;13.07;5.97;;;;;;;;;;5049565;28;20466;-64
2024/01/08 01:05:01;;;;;;;13.70;5.43;;;;;;;;;;5050068;28;20279;-64
2024/01/08 01:07:27;;;;;;;12.90;5.00;;;;;;;;;;5030889;28;20762;-64
2024/01/08 01:09:53;;;;;;;11.47;6.03;;;;;;;;;;5028666;28;20280;-64
2024/01/08 01:12:19;;;;;;;11.13;5.17;;;;;;;;;;5030038;28;20774;-64
2024/01/08 01:14:45;;;;;;;10.13;5.30;;;;;;;;;;5029053;28;20280;-64
2024/01/08 01:17:11;;;;;;;12.20;5.47;;;;;;;;;;5029376;28;20099;-64
2024/01/08 01:19:37;;;;;;;17.77;6.03;;;;;;;;;;5029632;28;20561;-64
2024/01/08 01:22:03;;;;;;;11.27;5.40;;;;;;;;;;5029629;28;20382;-64
2024/01/08 01:24:29;;;;;;;10.17;5.37;;;;;;;;;;5028632;28;20813;-64
2024/01/08 01:26:55;;;;;;;10.83;6.47;;;;;;;;;;5028462;28;20737;-64
2024/01/08 01:29:21;;;;;;;12.47;6.30;;;;;;;;;;5033899;28;20367;-64
2024/01/08 01:31:47;;;;;;;13.00;5.83;;;;;;;;;;5043688;28;20053;-64
2024/01/08 01:34:13;;;;;;;10.30;5.83;;;;;;;;;;5028911;28;20293;-64
2024/01/08 01:36:39;;;;;;;12.27;5.87;;;;;;;;;;5029145;28;20087;-64
2024/01/08 01:39:06;;;;;;;9.87;5.67;;;;;;;;;;5029513;28;20041;-64
2024/01/08 01:41:32;;;;;;;14.47;5.70;;;;;;;;;;5029505;28;20288;-64
2024/01/08 01:43:58;;;;;;;13.57;5.70;;;;;;;;;;5028555;28;20288;-64
2024/01/08 01:46:36;;;;;;;17.07;6.43;;;;;;;;;;5029294;28;20284;-64
2024/01/08 01:49:03;;;;;;;11.83;6.03;;;;;;;;;;5009790;28;20862;-64
2024/01/08 01:51:29;;;;;;;12.80;6.17;;;;;;;;;;5027959;28;20299;-64
2024/01/08 01:53:57;;;;;;;12.07;5.23;;;;;;;;;;5027313;28;20658;-64
2024/01/08 01:56:23;;;;;;;14.30;6.17;;;;;;;;;;5028077;28;20308;-64
2024/01/08 01:58:50;;;;;;;11.57;5.87;;;;;;;;;;5025600;28;20662;-64
2024/01/08 02:01:16;;;;;;;11.67;5.87;;;;;;;;;;5029196;28;20300;-64
2024/01/08 02:03:42;;;;;;;11.30;5.87;;;;;;;;;;5036486;28;20315;-64
2024/01/08 02:06:10;;;;;;;13.97;6.83;;;;;;;;;;5049071;28;20341;-64
2024/01/08 02:08:36;;;;;;;13.20;6.10;;;;;;;;;;5048820;28;20297;-64
2024/01/08 02:11:03;;;;;;;12.47;5.80;;;;;;;;;;5048500;28;20291;-64
2024/01/08 02:13:29;;;;;;;13.00;6.57;;;;;;;;;;5048805;28;20315;-64
2024/01/08 02:15:55;;;;;;;15.77;6.13;;;;;;;;;;5036023;28;20306;-64
2024/01/08 02:18:21;;;;;;;15.97;6.80;;;;;;;;;;5028940;28;20284;-64
2024/01/08 02:20:47;;;;;;;16.20;6.43;;;;;;;;;;5037258;28;20361;-64
2024/01/08 02:23:13;;;;;;;11.83;6.80;;;;;;;;;;5048077;28;20283;-64
2024/01/08 02:25:39;;;;;;;23.47;7.40;;;;;;;;;;5048921;28;20076;-64
2024/01/08 02:28:05;;;;;;;11.57;6.27;;;;;;;;;;5052389;28;20315;-64
2024/01/08 02:30:31;;;;;;;13.17;5.93;;;;;;;;;;5052771;28;20049;-64
2024/01/08 02:32:57;;;;;;;12.70;6.80;;;;;;;;;;5052017;28;20311;-64
2024/01/08 02:35:23;;;;;;;11.43;7.27;;;;;;;;;;5042215;28;20140;-64
2024/01/08 02:37:49;;;;;;;14.43;7.00;;;;;;;;;;5033314;28;20132;-64
2024/01/08 02:40:15;;;;;;;14.20;7.13;;;;;;;;;;5032278;28;20366;-64
2024/01/08 02:42:41;;;;;;;16.47;7.30;;;;;;;;;;5032739;28;20049;-65
2024/01/08 02:45:10;;;;;;;14.23;6.87;;;;;;;;;;5031666;28;20670;-65
2024/01/08 02:47:37;;;;;;;13.40;6.80;;;;;;;;;;5032427;28;20284;-64
2024/01/08 02:50:07;;;;;;;14.40;6.87;;;;;;;;;;5031749;28;20292;-64
2024/01/08 02:52:33;;;;;;;13.37;7.47;;;;;;;;;;5031601;28;20364;-65
2024/01/08 02:54:59;;;;;;;15.00;7.93;;;;;;;;;;5032824;28;20363;-65
2024/01/08 02:57:29;;;;;;;13.73;6.53;;;;;;;;;;5031998;28;20292;-64
2024/01/08 02:59:55;;;;;;;14.27;7.30;;;;;;;;;;5029602;28;20415;-64
2024/01/08 03:02:21;;;;;;;14.77;7.97;;;;;;;;;;5030138;28;20331;-64
2024/01/08 03:04:47;;;;;;;15.50;7.20;;;;;;;;;;5031259;28;20335;-64
2024/01/08 03:07:17;;;;;;;11.73;7.60;;;;;;;;;;5030232;28;20300;-65
2024/01/08 03:09:44;;;;;;;12.77;6.93;;;;;;;;;;5032149;28;20045;-64
2024/01/08 03:12:10;;;;;;;12.60;7.00;;;;;;;;;;5037248;28;20344;-64
2024/01/08 03:14:36;;;;;;;13.70;8.70;;;;;;;;;;5031207;28;20284;-64
2024/01/08 03:17:02;;;;;;;16.60;7.73;;;;;;;;;;5032182;28;20367;-64
2024/01/08 03:19:28;;;;;;;16.20;7.33;;;;;;;;;;5031451;28;20115;-64
2024/01/08 03:21:54;;;;;;;14.43;7.60;;;;;;;;;;5031708;28;20084;-64
2024/01/08 03:24:20;;;;;;;15.10;8.00;;;;;;;;;;5031627;28;20284;-64
2024/01/08 03:26:46;;;;;;;19.27;8.00;;;;;;;;;;5031769;28;20488;-64
2024/01/08 03:29:13;;;;;;;11.40;7.10;;;;;;;;;;5031630;28;20214;-64
2024/01/08 03:31:45;;;;;;;14.57;7.73;;;;;;;;;;5031699;28;20049;-65
2024/01/08 03:34:12;;;;;;;15.50;8.03;;;;;;;;;;5031501;28;20292;-64
2024/01/08 03:36:37;;;;;;;16.40;7.23;;;;;;;;;;5031008;28;20288;-64
2024/01/08 03:39:03;;;;;;;12.87;7.50;;;;;;;;;;5028231;28;20659;-64
2024/01/08 03:41:29;;;;;;;15.60;7.43;;;;;;;;;;5011522;28;20088;-64
2024/01/08 03:43:55;;;;;;;12.90;7.07;;;;;;;;;;5027239;28;20038;-64
2024/01/08 03:46:21;;;;;;;17.47;7.73;;;;;;;;;;5030256;28;20053;-64
2024/01/08 03:48:48;;;;;;;15.63;7.47;;;;;;;;;;5029289;28;20382;-64
2024/01/08 03:51:14;;;;;;;13.27;7.53;;;;;;;;;;5030521;28;20284;-64
2024/01/08 03:53:40;;;;;;;11.97;6.73;;;;;;;;;;5011492;28;20367;-64
2024/01/08 03:56:06;;;;;;;12.23;7.47;;;;;;;;;;5011161;28;20094;-64
2024/01/08 03:58:32;;;;;;;14.07;8.23;;;;;;;;;;5029696;28;20046;-64
2024/01/08 04:00:58;;;;;;;11.93;7.47;;;;;;;;;;5014589;28;20296;-64
2024/01/08 04:03:24;;;;;;;15.47;7.73;;;;;;;;;;5029223;28;20308;-64
2024/01/08 04:05:50;;;;;;;14.13;7.57;;;;;;;;;;5030160;28;20127;-64
2024/01/08 04:08:17;;;;;;;13.33;7.67;;;;;;;;;;5029333;28;20412;-64
2024/01/08 04:10:43;;;;;;;12.93;7.43;;;;;;;;;;5029893;28;20060;-64
2024/01/08 04:13:09;;;;;;;10.97;6.83;;;;;;;;;;5030553;28;20366;-64
2024/01/08 04:15:35;;;;;;;12.13;6.40;;;;;;;;;;5029328;28;20335;-64
2024/01/08 04:18:01;;;;;;;10.93;6.43;;;;;;;;;;5029872;28;20393;-64
2024/01/08 04:20:27;;;;;;;12.47;6.47;;;;;;;;;;5028882;28;20048;-64
2024/01/08 04:22:53;;;;;;;14.27;6.53;;;;;;;;;;5030581;28;20276;-65
2024/01/08 04:25:19;;;;;;;13.00;6.67;;;;;;;;;;5029839;28;20049;-64
2024/01/08 04:27:45;;;;;;;10.77;6.33;;;;;;;;;;5029845;28;20397;-64
2024/01/08 04:30:12;;;;;;;10.70;6.27;;;;;;;;;;5029946;28;20315;-64
2024/01/08 04:32:38;;;;;;;10.30;5.60;;;;;;;;;;5028565;28;20399;-64
2024/01/08 04:35:04;;;;;;;11.00;6.10;;;;;;;;;;5029581;28;20303;-64
2024/01/08 04:37:30;;;;;;;10.67;5.87;;;;;;;;;;5030385;28;20774;-64
2024/01/08 04:39:56;;;;;;;12.20;6.00;;;;;;;;;;5028200;28;20841;-64
2024/01/08 04:42:22;;;;;;;10.77;6.07;;;;;;;;;;5028849;28;20315;-64
2024/01/08 04:44:48;;;;;;;11.30;6.47;;;;;;;;;;5029749;28;20789;-64
2024/01/08 04:47:15;;;;;;;10.73;6.03;;;;;;;;;;5030082;28;20045;-65
2024/01/08 04:49:41;;;;;;;12.17;6.10;;;;;;;;;;5029319;28;20292;-64
2024/01/08 04:52:07;;;;;;;9.10;5.90;;;;;;;;;;5029874;28;20314;-64
2024/01/08 04:54:33;;;;;;;10.83;6.20;;;;;;;;;;5045085;28;20295;-64
2024/01/08 04:56:59;;;;;;;10.20;5.63;;;;;;;;;;5049515;28;20279;-64
2024/01/08 04:59:25;;;;;;;8.97;5.27;;;;;;;;;;5036412;28;20367;-64
2024/01/08 05:01:51;;;;;;;11.67;5.93;;;;;;;;;;5030022;28;20077;-64
2024/01/08 05:04:17;;;;;;;10.47;5.60;;;;;;;;;;5029880;28;20339;-64
2024/01/08 05:06:44;;;;;;;8.57;4.73;;;;;;;;;;5030145;28;20327;-64
2024/01/08 05:09:10;;;;;;;12.03;6.27;;;;;;;;;;5030014;28;20281;-64
2024/01/08 05:11:36;;;;;;;9.03;5.03;;;;;;;;;;5041745;28;20279;-64
2024/01/08 05:14:06;;;;;;;10.10;5.47;;;;;;;;;;5028755;28;20288;-64
2024/01/08 05:16:32;;;;;;;8.57;4.80;;;;;;;;;;5029651;28;20391;-64
2024/01/08 05:18:58;;;;;;;9.57;4.97;;;;;;;;;;5029393;28;20288;-64
2024/01/08 05:21:24;;;;;;;8.53;4.77;;;;;;;;;;5029200;28;20330;-64
2024/01/08 05:23:50;;;;;;;11.03;5.00;;;;;;;;;;5029380;28;20813;-64
2024/01/08 05:26:16;;;;;;;8.40;4.70;;;;;;;;;;5029312;28;20299;-64
2024/01/08 05:28:42;;;;;;;7.90;5.17;;;;;;;;;;5045340;28;20272;-64
2024/01/08 05:31:08;;;;;;;9.70;4.93;;;;;;;;;;5049012;28;20438;-64
2024/01/08 05:33:34;;;;;;;9.33;4.67;;;;;;;;;;5045029;28;20037;-64
2024/01/08 05:36:00;;;;;;;7.10;4.37;;;;;;;;;;5029643;28;20323;-65
2024/01/08 05:38:26;;;;;;;9.00;4.57;;;;;;;;;;5028596;28;20321;-64
2024/01/08 05:40:55;;;;;;;8.20;4.40;;;;;;;;;;5029286;28;20288;-64
2024/01/08 05:43:22;;;;;;;8.87;4.70;;;;;;;;;;5026906;28;20312;-64
2024/01/08 05:45:48;;;;;;;6.20;3.77;;;;;;;;;;5014465;28;20829;-64
2024/01/08 05:48:14;;;;;;;7.83;4.33;;;;;;;;;;5016420;28;20318;-65
2024/01/08 05:50:41;;;;;;;7.23;4.30;;;;;;;;;;5027909;28;20304;-64
2024/01/08 05:53:07;;;;;;;8.77;4.60;;;;;;;;;;5028098;28;20410;-64
2024/01/08 05:55:33;;;;;;;6.43;3.77;;;;;;;;;;5028430;28;20315;-64
2024/01/08 05:57:59;;;;;;;7.77;4.30;;;;;;;;;;5027776;28;20296;-64
2024/01/08 06:00:25;;;;;;;7.97;4.30;;;;;;;;;;5028643;28;20140;-64
2024/01/08 06:02:51;;;;;;;7.20;4.17;;;;;;;;;;5043557;28;20292;-65
2024/01/08 06:05:17;;;;;;;7.80;4.80;;;;;;;;;;5031838;28;20300;-64
2024/01/08 06:07:43;;;;;;;10.47;5.43;;;;;;;;;;5032868;28;20052;-64
2024/01/08 06:10:09;;;;;;;14.40;6.37;;;;;;;;;;5033621;28;20318;-64
2024/01/08 06:12:35;;;;;;;9.57;4.63;;;;;;;;;;5031642;28;20326;-64
2024/01/08 06:15:01;;;;;;;10.67;5.60;;;;;;;;;;5032915;28;20371;-64
2024/01/08 06:17:27;;;;;;;10.27;4.80;;;;;;;;;;5033076;28;20042;-65
2024/01/08 06:19:53;;;;;;;13.10;6.00;;;;;;;;;;5033447;28;20557;-64
2024/01/08 06:22:19;;;;;;;11.17;6.87;;;;;;;;;;5032347;28;20103;-64
2024/01/08 06:24:45;;;;;;;11.30;5.37;;;;;;;;;;5033081;28;20284;-65
2024/01/08 06:27:11;;;;;;;13.43;5.03;;;;;;;;;;5032875;28;20049;-64
2024/01/08 06:29:37;;;;;;;11.40;4.90;;;;;;;;;;5044801;28;20569;-65
2024/01/08 06:32:03;;;;;;;10.13;5.00;;;;;;;;;;5034794;28;20315;-64
2024/01/08 06:34:30;;;;;;;10.90;5.00;;;;;;;;;;5032823;28;20697;-64
2024/01/08 06:36:55;;;;;;;8.77;5.10;;;;;;;;;;5032392;28;20786;-64
2024/01/08 06:39:21;;;;;;;11.70;5.17;;;;;;;;;;5032628;28;20367;-64
2024/01/08 06:41:47;;;;;;;10.77;5.40;;;;;;;;;;5032552;28;20041;-64
2024/01/08 06:44:13;;;;;;;10.87;5.47;;;;;;;;;;5032044;28;20057;-64
2024/01/08 06:46:39;;;;;;;8.93;5.37;;;;;;;;;;5032190;28;20056;-64
2024/01/08 06:49:06;;;;;;;12.87;6.07;;;;;;;;;;5032382;28;21463;-64
2024/01/08 06:51:37;;;;;;;12.40;5.43;;;;;;;;;;5032143;28;20079;-64
2024/01/08 06:54:03;;;;;;;9.10;5.23;;;;;;;;;;5032938;28;20312;-65
2024/01/08 06:56:29;;;;;;;10.73;6.23;;;;;;;;;;5031614;28;20326;-64
2024/01/08 06:58:56;;;;;;;10.77;5.43;;;;;;;;;;5032153;28;20099;-64
2024/01/08 07:01:22;;;;;;;13.17;5.57;;;;;;;;;;5035354;28;20732;-64
2024/01/08 07:03:48;;;;;;;12.17;5.73;;;;;;;;;;5031972;28;20296;-64
2024/01/08 07:06:15;;;;;;;14.40;6.17;;;;;;;;;;5031574;28;20034;-64
2024/01/08 07:08:41;;;;;;;12.17;5.67;;;;;;;;;;5045939;28;20328;-64
2024/01/08 07:11:07;;;;;;;10.53;5.87;;;;;;;;;;5030974;28;20300;-64
2024/01/08 07:13:33;;;;;;;12.80;5.17;;;;;;;;;;5029827;28;20049;-64
2024/01/08 07:15:59;;;;;;;11.87;5.90;;;;;;;;;;5030374;28;20311;-64
2024/01/08 07:18:25;;;;;;;18.10;6.63;;;;;;;;;;5050355;28;20045;-64
2024/01/08 07:20:51;;;;;;;9.23;5.13;;;;;;;;;;5051944;28;20298;-64
2024/01/08 07:23:17;;;;;;;10.57;5.67;;;;;;;;;;5050840;28;20299;-64
2024/01/08 07:25:43;;;;;;;11.60;6.43;;;;;;;;;;5051479;28;20298;-64
2024/01/08 07:28:10;;;;;;;10.87;5.73;;;;;;;;;;5032185;28;20295;-64
2024/01/08 07:30:36;;;;;;;9.07;5.87;;;;;;;;;;5028886;28;20312;-64
2024/01/08 07:33:03;;;;;;;11.50;6.67;;;;;;;;;;5011781;28;20386;-64
2024/01/08 07:35:29;;;;;;;11.27;6.20;;;;;;;;;;5018314;28;20288;-64
2024/01/08 07:37:55;;;;;;;13.13;5.87;;;;;;;;;;5031428;28;20288;-64
2024/01/08 07:40:25;;;;;;;9.27;5.37;;;;;;;;;;5031383;28;20685;-64
2024/01/08 07:42:55;;;;;;;15.97;6.70;;;;;;;;;;5031616;28;20299;-64
2024/01/08 07:45:26;;;;;;;10.83;6.77;;;;;;;;;;5051187;28;20291;-64
2024/01/08 07:47:52;;;;;;;416.37;196.07;;;;;;;;;;5051300;28;20802;-64
2024/01/08 07:50:19;;;;;;;85.93;41.33;;;;;;;;;;5051443;28;20295;-64
2024/01/08 07:52:45;;;;;;;16.13;10.40;;;;;;;;;;5050655;28;20402;-64
2024/01/08 07:55:12;;;;;;;12.37;6.13;;;;;;;;;;5035925;28;20320;-64
2024/01/08 07:57:38;;;;;;;16.80;7.30;;;;;;;;;;5029315;28;20308;-64
2024/01/08 08:00:09;;;;;;;11.03;5.90;;;;;;;;;;5030930;28;20367;-64
2024/01/08 08:02:36;;;;;;;10.47;5.50;;;;;;;;;;5028860;28;20049;-64
2024/01/08 08:05:02;;;;;;;15.73;8.97;;;;;;;;;;5030815;28;20276;-64
2024/01/08 08:07:28;;;;;;;11.83;6.23;;;;;;;;;;5030741;28;20338;-64
2024/01/08 08:09:55;;;;;;;15.80;7.30;;;;;;;;;;5035841;28;20296;-64
2024/01/08 08:12:21;;;;;;;9.57;4.97;;;;;;;;;;5030374;28;20308;-64
2024/01/08 08:14:47;;;;;;;9.67;5.20;;;;;;;;;;5033201;28;20345;-64
2024/01/08 08:17:13;;;;;;;10.07;5.73;;;;;;;;;;5034439;28;20291;-64
2024/01/08 08:19:43;;;;;;;10.33;6.27;;;;;;;;;;5051042;28;20284;-64
2024/01/08 08:22:12;;;;;;;10.23;6.23;;;;;;;;;;5032202;28;20288;-64
2024/01/08 08:24:41;;;;;;;10.77;5.43;;;;;;;;;;5030610;28;20292;-64
2024/01/08 08:27:09;;;;;;;8.53;5.13;;;;;;;;;;5046227;28;20296;-64
2024/01/08 08:29:37;;;;;;;9.83;5.40;;;;;;;;;;5029894;28;20819;-64
2024/01/08 08:32:03;;;;;;;12.43;7.47;;;;;;;;;;5028784;28;20316;-64
2024/01/08 08:34:30;;;;;;;8.80;5.00;;;;;;;;;;5030410;28;20280;-64
2024/01/08 08:36:56;;;;;;;9.37;4.77;;;;;;;;;;5029522;28;20373;-64
2024/01/08 08:39:22;;;;;;;9.20;5.80;;;;;;;;;;5030075;28;20291;-64
2024/01/08 08:41:48;;;;;;;7.37;4.07;;;;;;;;;;5032939;28;20296;-64
2024/01/08 08:44:15;;;;;;;8.90;4.20;;;;;;;;;;5031397;28;20296;-64
2024/01/08 08:46:41;;;;;;;9.73;4.40;;;;;;;;;;5030227;28;20079;-64
2024/01/08 08:49:07;;;;;;;8.57;4.27;;;;;;;;;;5029513;28;20292;-64
2024/01/08 08:51:34;;;;;;;7.73;4.33;;;;;;;;;;5029192;28;20334;-64
2024/01/08 08:54:03;;;;;;;11.50;5.10;;;;;;;;;;5029803;28;20136;-64
2024/01/08 08:56:30;;;;;;;7.67;4.60;;;;;;;;;;5029336;28;20292;-64
2024/01/08 08:58:56;;;;;;;7.30;4.60;;;;;;;;;;5028255;28;20674;-64
2024/01/08 09:01:23;;;;;;;10.17;4.50;;;;;;;;;;5028778;28;20350;-64
2024/01/08 09:03:49;;;;;;;9.83;4.57;;;;;;;;;;5029645;28;20371;-64
2024/01/08 09:06:15;;;;;;;8.47;4.43;;;;;;;;;;5029082;28;20376;-64
2024/01/08 09:08:40;;;;;;;7.47;3.87;;;;;;;;;;5029383;28;20538;-64
2024/01/08 09:11:08;;;;;;;6.57;3.70;;;;;;;;;;5029479;28;20089;-64
2024/01/08 09:13:34;;;;;;;10.60;4.37;;;;;;;;;;5028255;28;20420;-64
2024/01/08 09:16:00;;;;;;;5.10;3.23;;;;;;;;;;5028613;28;20296;-64
2024/01/08 09:18:26;;;;;;;8.00;3.70;;;;;;;;;;5028019;28;20353;-64
2024/01/08 09:20:54;;;;;;;7.43;3.97;;;;;;;;;;5029053;28;20095;-64
2024/01/08 09:23:20;;;;;;;7.23;3.20;;;;;;;;;;5028877;28;20399;-64
2024/01/08 09:25:46;;;;;;;7.73;4.53;;;;;;;;;;5027608;28;20836;-64
2024/01/08 09:28:12;;;;;;;6.97;4.07;;;;;;;;;;5027780;28;20303;-64
2024/01/08 09:30:38;;;;;;;8.60;4.00;;;;;;;;;;5029099;28;20076;-64
2024/01/08 09:33:04;;;;;;;8.30;4.00;;;;;;;;;;5028446;28;20746;-64
2024/01/08 09:35:30;;;;;;;7.73;4.20;;;;;;;;;;5028717;28;20484;-64
2024/01/08 09:37:56;;;;;;;10.40;4.87;;;;;;;;;;5028769;28;20276;-64
2024/01/08 09:40:22;;;;;;;7.50;3.77;;;;;;;;;;5028858;28;20407;-64
2024/01/08 09:42:49;;;;;;;9.73;4.37;;;;;;;;;;5028784;28;20041;-63
2024/01/08 09:45:17;;;;;;;7.20;4.77;;;;;;;;;;5028695;28;20045;-64
2024/01/08 09:47:44;;;;;;;8.60;4.53;;;;;;;;;;5028531;28;20303;-64
2024/01/08 09:50:10;;;;;;;8.87;4.40;;;;;;;;;;5028800;28;20722;-64
2024/01/08 09:52:39;;;;;;;9.77;4.70;;;;;;;;;;5028483;28;20670;-64
2024/01/08 09:55:07;;;;;;;7.67;4.97;;;;;;;;;;5028688;28;20370;-64
2024/01/08 09:57:33;;;;;;;6.50;3.47;;;;;;;;;;5027843;28;20300;-64
2024/01/08 09:59:59;;;;;;;8.77;4.43;;;;;;;;;;5027777;28;20299;-64
2024/01/08 10:02:25;;;;;;;11.30;6.50;;;;;;;;;;5027829;28;20046;-64
2024/01/08 10:04:51;;;;;;;11.50;5.17;;;;;;;;;;5009071;28;20041;-64
2024/01/08 10:07:17;;;;;;;7.73;4.13;;;;;;;;;;5008814;28;20081;-63
2024/01/08 10:09:43;;;;;;;8.53;4.30;;;;;;;;;;5009486;28;20381;-64
2024/01/08 10:12:12;;;;;;;10.23;4.50;;;;;;;;;;5024107;28;20311;-63
2024/01/08 10:14:38;;;;;;;11.77;5.90;;;;;;;;;;5028320;28;20053;-63
2024/01/08 10:17:06;;;;;;;10.30;5.33;;;;;;;;;;5028797;28;20280;-64
2024/01/08 10:19:32;;;;;;;8.30;4.07;;;;;;;;;;5028363;28;20042;-64
2024/01/08 10:22:13;;;;;;;7.83;4.10;;;;;;;;;;5027989;28;20288;-64
2024/01/08 10:24:43;;;;;;;9.27;3.87;;;;;;;;;;5028409;28;20127;-64
2024/01/08 10:27:10;;;;;;;8.43;3.80;;;;;;;;;;5026751;28;20666;-64
2024/01/08 10:29:36;;;;;;;5.10;3.73;;;;;;;;;;5028134;28;20786;-63
2024/01/08 10:32:03;;;;;;;7.47;3.07;;;;;;;;;;5027864;28;20613;-64
2024/01/08 10:34:30;;;;;;;7.27;3.30;;;;;;;;;;5027416;28;20295;-63
2024/01/08 10:36:58;;;;;;;6.83;3.40;;;;;;;;;;5028171;28;20296;-64
2024/01/08 10:39:25;;;;;;;4.90;3.33;;;;;;;;;;5027985;28;20308;-64
2024/01/08 10:41:51;;;;;;;5.90;3.13;;;;;;;;;;5027206;28;20300;-63
2024/01/08 10:44:17;;;;;;;6.23;3.33;;;;;;;;;;5027903;28;20299;-64
2024/01/08 10:46:49;;;;;;;6.47;3.53;;;;;;;;;;5028175;28;20338;-64
2024/01/08 10:49:19;;;;;;;8.20;4.20;;;;;;;;;;5032035;28;20038;-64
2024/01/08 10:51:47;;;;;;;5.87;3.53;;;;;;;;;;5031887;28;20041;-64
2024/01/08 10:54:17;;;;;;;8.50;4.07;;;;;;;;;;5030352;28;20300;-64
2024/01/08 10:56:46;;;;;;;6.40;3.80;;;;;;;;;;5031436;28;20296;-63
2024/01/08 10:59:12;;;;;;;8.37;3.47;;;;;;;;;;5031749;28;20288;-64
2024/01/08 11:01:39;;;;;;;6.87;3.23;;;;;;;;;;5030324;28;20399;-64
2024/01/08 11:04:05;;;;;;;6.10;3.20;;;;;;;;;;5012052;28;20467;-64
2024/01/08 11:06:36;;;;;;;11.87;6.77;;;;;;;;;;5012446;28;20356;-64
2024/01/08 11:09:04;;;;;;;5.97;3.37;;;;;;;;;;5025055;28;20052;-64
2024/01/08 11:11:33;;;;;;;6.47;4.20;;;;;;;;;;5031116;28;20280;-64
2024/01/08 11:13:59;;;;;;;8.07;4.50;;;;;;;;;;5030588;28;20416;-64
2024/01/08 11:16:29;;;;;;;8.93;3.30;;;;;;;;;;5031378;28;20292;-64
2024/01/08 11:19:26;;;;;;;6.43;3.17;;;;;;;;;;5030725;28;20527;-64
2024/01/08 11:21:57;;;;;;;7.10;3.77;;;;;;;;;;5007004;28;20870;-64
2024/01/08 11:24:24;;;;;;;8.73;4.20;;;;;;;;;;5029418;28;20087;-64
2024/01/08 11:26:51;;;;;;;9.60;5.00;;;;;;;;;;5029449;28;20043;-64
2024/01/08 11:29:18;;;;;;;6.23;3.60;;;;;;;;;;5030570;28;20503;-65
2024/01/08 11:31:50;;;;;;;5.33;1.87;;;;;;;;;;5029338;28;20300;-64
2024/01/08 11:34:34;;;;;;;5.17;2.77;;;;;;;;;;5031013;28;20320;-64
2024/01/08 11:37:19;;;;;;;6.73;3.03;;;;;;;;;;5031605;28;20050;-63
2024/01/08 11:39:45;;;;;;;6.27;3.43;;;;;;;;;;5011232;28;20320;-64
2024/01/08 11:42:12;;;;;;;7.77;3.20;;;;;;;;;;5014694;28;20311;-64
2024/01/08 11:44:39;;;;;;;6.77;2.80;;;;;;;;;;5029827;28;20354;-64
2024/01/08 11:47:05;;;;;;;5.33;3.20;;;;;;;;;;5031502;28;20057;-64
2024/01/08 11:49:31;;;;;;;8.70;3.40;;;;;;;;;;5024868;28;20288;-64
2024/01/08 11:52:00;;;;;;;5.30;3.37;;;;;;;;;;5030955;28;20056;-64
2024/01/08 11:54:26;;;;;;;5.77;3.13;;;;;;;;;;5028967;28;20495;-64
2024/01/08 11:56:52;;;;;;;6.87;3.07;;;;;;;;;;5030990;28;20049;-64
2024/01/08 11:59:35;;;;;;;5.13;3.30;;;;;;;;;;5029297;28;20046;-64
2024/01/08 12:02:27;;;;;;;5.00;2.97;;;;;;;;;;5011666;28;20054;-64
2024/01/08 12:04:54;;;;;;;4.77;3.20;;;;;;;;;;5020374;28;20053;-63
2024/01/08 12:07:21;;;;;;;7.70;3.80;;;;;;;;;;5030048;28;20451;-64
2024/01/08 12:09:50;;;;;;;7.77;3.87;;;;;;;;;;5019320;28;20458;-64
2024/01/08 12:12:17;;;;;;;6.90;4.73;;;;;;;;;;5030031;28;20053;-64
2024/01/08 12:14:43;;;;;;;6.20;4.70;;;;;;;;;;5029722;28;20033;-64
2024/01/08 12:17:11;;;;;;;5.63;3.30;;;;;;;;;;5029726;28;20470;-64
2024/01/08 12:19:52;;;;;;;9.50;5.03;;;;;;;;;;5031015;28;20045;-64
2024/01/08 12:22:19;;;;;;;6.17;3.63;;;;;;;;;;5029156;28;20052;-64
2024/01/08 12:24:45;;;;;;;6.30;3.63;;;;;;;;;;5029692;28;20045;-64
2024/01/08 12:27:12;;;;;;;5.63;3.10;;;;;;;;;;5029203;28;20041;-63
2024/01/08 12:29:39;;;;;;;5.73;3.30;;;;;;;;;;5030924;28;20526;-64
2024/01/08 12:32:06;;;;;;;15.70;10.83;;;;;;;;;;5029734;28;20446;-64
2024/01/08 12:34:33;;;;;;;7.87;6.83;;;;;;;;;;5031169;28;20531;-64
2024/01/08 12:37:00;;;;;;;5.60;2.80;;;;;;;;;;5030818;28;20500;-64
2024/01/08 12:39:31;;;;;;;6.83;4.10;;;;;;;;;;5012524;28;20129;-64
2024/01/08 12:42:00;;;;;;;5.17;3.17;;;;;;;;;;5030207;28;20558;-64
2024/01/08 12:44:27;;;;;;;7.70;3.53;;;;;;;;;;5029446;28;20073;-64
2024/01/08 12:46:54;;;;;;;5.73;3.60;;;;;;;;;;5030222;28;20046;-64
2024/01/08 12:49:20;;;;;;;7.00;3.13;;;;;;;;;;5030260;28;20466;-64
2024/01/08 12:51:46;;;;;;;6.03;3.07;;;;;;;;;;5029924;28;20037;-64
2024/01/08 12:54:12;;;;;;;6.00;3.10;;;;;;;;;;5029573;28;20529;-64
2024/01/08 12:56:38;;;;;;;9.10;3.60;;;;;;;;;;5028065;28;20048;-64
2024/01/08 12:59:04;;;;;;;7.07;3.77;;;;;;;;;;5025226;28;20049;-64
2024/01/08 13:01:31;;;;;;;7.27;3.53;;;;;;;;;;5027771;28;20051;-64
2024/01/08 13:03:57;;;;;;;5.73;3.33;;;;;;;;;;5026472;28;20042;-64
2024/01/08 13:06:23;;;;;;;5.63;3.37;;;;;;;;;;5027780;28;20045;-64
2024/01/08 13:08:49;;;;;;;5.53;2.90;;;;;;;;;;5027580;28;20057;-64
2024/01/08 13:11:15;;;;;;;9.20;5.20;;;;;;;;;;5025931;28;20077;-64
2024/01/08 13:13:41;;;;;;;6.17;3.40;;;;;;;;;;5029249;28;20050;-64
2024/01/08 13:16:07;;;;;;;6.37;4.23;;;;;;;;;;5029557;28;20045;-64
2024/01/08 13:18:33;;;;;;;7.43;3.20;;;;;;;;;;5029362;28;20547;-64
2024/01/08 13:21:00;;;;;;;5.73;3.20;;;;;;;;;;5029244;28;20037;-64
2024/01/08 13:23:26;;;;;;;5.10;3.00;;;;;;;;;;5028772;28;20435;-64
2024/01/08 13:25:52;;;;;;;4.73;2.83;;;;;;;;;;5028933;28;20064;-64
2024/01/08 13:28:19;;;;;;;6.03;3.60;;;;;;;;;;5029171;28;20344;-64
2024/01/08 13:30:45;;;;;;;14.63;11.50;;;;;;;;;;5029014;28;20050;-64
2024/01/08 13:33:11;;;;;;;6.73;3.73;;;;;;;;;;5028715;28;20045;-64
2024/01/08 13:35:37;;;;;;;5.23;3.30;;;;;;;;;;5029143;28;20053;-65
2024/01/08 13:38:03;;;;;;;6.20;2.90;;;;;;;;;;5028864;28;20052;-65
2024/01/08 13:40:29;;;;;;;8.13;3.40;;;;;;;;;;5029092;28;20038;-64
2024/01/08 13:42:56;;;;;;;11.10;3.77;;;;;;;;;;5028709;28;20068;-64
2024/01/08 13:45:26;;;;;;;8.73;4.33;;;;;;;;;;5028122;28;20060;-64
2024/01/08 13:47:52;;;;;;;5.90;3.80;;;;;;;;;;5028552;28;20337;-64
2024/01/08 13:50:18;;;;;;;5.63;3.50;;;;;;;;;;5028753;28;20049;-64
2024/01/08 13:52:44;;;;;;;5.90;3.00;;;;;;;;;;5028702;28;20052;-64
2024/01/08 13:55:11;;;;;;;6.07;3.20;;;;;;;;;;5028121;28;20049;-64
2024/01/08 13:57:40;;;;;;;5.97;4.03;;;;;;;;;;5028915;28;20045;-64
2024/01/08 14:00:07;;;;;;;6.27;3.13;;;;;;;;;;5028938;28;20140;-64
2024/01/08 14:02:33;;;;;;;7.43;3.77;;;;;;;;;;5028115;28;20564;-64
2024/01/08 14:05:00;;;;;;;6.53;3.60;;;;;;;;;;5028352;28;20097;-64
2024/01/08 14:07:26;;;;;;;5.87;3.37;;;;;;;;;;5028841;28;20050;-64
2024/01/08 14:09:52;;;;;;;6.57;4.03;;;;;;;;;;5028705;28;20160;-64
2024/01/08 14:12:18;;;;;;;6.53;3.63;;;;;;;;;;5027239;28;20053;-64
2024/01/08 14:14:44;;;;;;;7.73;3.87;;;;;;;;;;5028459;28;20053;-64
2024/01/08 14:17:10;;;;;;;7.77;4.83;;;;;;;;;;5028575;28;20049;-64
2024/01/08 14:19:36;;;;;;;5.47;3.60;;;;;;;;;;5028599;28;20045;-64
2024/01/08 14:22:02;;;;;;;5.27;3.60;;;;;;;;;;5028976;28;20041;-64
2024/01/08 14:24:29;;;;;;;6.50;3.40;;;;;;;;;;5030878;28;20447;-64
2024/01/08 14:26:56;;;;;;;5.57;2.83;;;;;;;;;;5032281;28;20050;-64
2024/01/08 14:29:22;;;;;;;6.07;3.03;;;;;;;;;;5032444;28;20400;-64
2024/01/08 14:31:49;;;;;;;4.93;3.10;;;;;;;;;;5032206;28;20055;-64
2024/01/08 14:34:16;;;;;;;7.63;3.43;;;;;;;;;;5031677;28;20046;-64